Time;durP1;ratioP1;P1;durP2;ratioP2;P2;SDS_P1;SDS_P2;PMS_P1;PMS_P2;Temp;Humidity;BMP_temperature;BMP_pressure;BME280_temperature;BME280_humidity;BME280_pressure;Samples;Min_cycle;Max_cycle;Signal;HPM_P1;HPM_P2
2024/01/29 00:02:16;;;;;;;27.13;18.38;;;;;;;16.75;42.76;94767.09;5029296;28;20434;-92
2024/01/29 00:04:41;;;;;;;31.48;21.33;;;;;;;16.72;42.63;94770.75;5018295;28;20064;-91
2024/01/29 00:07:08;;;;;;;22.85;15.57;;;;;;;16.71;42.39;94769.25;5004172;28;20034;-91
2024/01/29 00:09:33;;;;;;;22.63;15.95;;;;;;;16.68;42.17;94763.97;5025539;28;20041;-91
2024/01/29 00:11:59;;;;;;;20.90;14.35;;;;;;;16.66;42.00;94760.97;5034026;28;20041;-92
2024/01/29 00:14:24;;;;;;;33.03;20.67;;;;;;;16.74;42.01;94762.84;5012610;28;20040;-92
2024/01/29 00:16:50;;;;;;;32.15;21.40;;;;;;;16.71;42.73;94765.75;5011891;28;20045;-92
2024/01/29 00:19:15;;;;;;;31.90;20.00;;;;;;;16.76;42.68;94760.41;5026677;28;20037;-91
2024/01/29 00:21:41;;;;;;;40.08;26.55;;;;;;;16.82;43.38;94754.31;5013362;28;20385;-92
2024/01/29 00:24:06;;;;;;;30.50;20.67;;;;;;;16.75;42.22;94752.69;5011645;28;20041;-92
2024/01/29 00:26:31;;;;;;;25.55;16.83;;;;;;;16.73;42.93;94755.88;5007045;28;20316;-92
2024/01/29 00:28:57;;;;;;;22.90;15.48;;;;;;;16.71;42.36;94750.13;5009977;28;20072;-91
2024/01/29 00:31:23;;;;;;;39.38;25.48;;;;;;;16.79;43.01;94745.06;5014600;28;20041;-92
2024/01/29 00:33:48;;;;;;;36.40;22.00;;;;;;;16.79;43.13;94750.53;5001839;28;20051;-91
2024/01/29 00:36:15;;;;;;;35.30;21.13;;;;;;;16.75;42.99;94755.44;4982803;28;20041;-92
2024/01/29 00:38:40;;;;;;;34.28;22.02;;;;;;;16.75;42.77;94745.25;5010415;28;20053;-91
2024/01/29 00:41:06;;;;;;;33.08;21.58;;;;;;;16.71;42.69;94749.38;5025487;28;20105;-91
2024/01/29 00:43:32;;;;;;;31.15;20.35;;;;;;;16.76;43.15;94751.47;5021410;28;20103;-91
2024/01/29 00:45:58;;;;;;;23.60;16.38;;;;;;;16.74;42.36;94754.66;4996163;28;20049;-92
2024/01/29 00:48:24;;;;;;;29.67;18.65;;;;;;;16.74;42.89;94753.91;5024491;28;20042;-91
2024/01/29 00:50:52;;;;;;;34.33;19.42;;;;;;;16.69;42.92;94754.56;5042191;28;20037;-92
2024/01/29 00:53:18;;;;;;;37.40;24.75;;;;;;;16.78;42.71;94754.50;5009213;28;20041;-92
2024/01/29 00:55:45;;;;;;;33.80;23.10;;;;;;;16.73;42.55;94738.75;5011856;28;20080;-91
2024/01/29 00:58:11;;;;;;;34.00;23.13;;;;;;;16.70;42.47;94737.72;5023973;28;20144;-91
2024/01/29 01:00:38;;;;;;;33.50;21.90;;;;;;;16.68;42.52;94742.88;5009376;28;20052;-91
2024/01/29 01:03:05;;;;;;;32.75;23.20;;;;;;;16.72;42.36;94743.44;5016692;28;20060;-92
2024/01/29 01:05:31;;;;;;;43.78;27.23;;;;;;;16.72;42.96;94748.91;5002741;28;20103;-92
2024/01/29 01:07:56;;;;;;;29.55;18.08;;;;;;;16.70;42.26;94739.69;5008947;28;20092;-91
2024/01/29 01:10:22;;;;;;;36.47;22.27;;;;;;;16.73;42.53;94744.97;5003114;28;20049;-92
2024/01/29 01:12:47;;;;;;;28.85;18.60;;;;;;;16.71;42.63;94744.69;5016766;28;20037;-91
2024/01/29 01:15:13;;;;;;;31.35;21.05;;;;;;;16.76;42.76;94751.47;5026683;28;20052;-91
2024/01/29 01:17:40;;;;;;;30.33;19.85;;;;;;;16.71;42.43;94744.69;5031559;28;20053;-91
2024/01/29 01:20:06;;;;;;;38.70;25.42;;;;;;;16.75;42.92;94742.53;5018186;28;20573;-91
2024/01/29 01:22:32;;;;;;;30.85;19.80;;;;;;;16.70;42.76;94729.50;5019967;28;20512;-92
2024/01/29 01:24:57;;;;;;;37.78;22.55;;;;;;;16.74;42.20;94734.78;5023244;28;20041;-91
2024/01/29 01:27:22;;;;;;;28.40;18.23;;;;;;;16.71;42.42;94735.72;5016236;28;20045;-91
2024/01/29 01:29:48;;;;;;;35.75;21.45;;;;;;;16.74;42.76;94721.91;5014702;28;20071;-91
2024/01/29 01:32:13;;;;;;;40.30;25.38;;;;;;;16.79;42.45;94720.50;5027758;28;20085;-91
2024/01/29 01:34:39;;;;;;;29.33;19.88;;;;;;;16.75;42.29;94725.38;5024036;28;20038;-92
2024/01/29 01:37:07;;;;;;;35.58;21.58;;;;;;;16.74;43.03;94721.91;4978463;28;20064;-91
2024/01/29 01:39:32;;;;;;;38.15;24.65;;;;;;;16.73;42.04;94705.97;4995496;28;20041;-91
2024/01/29 01:41:58;;;;;;;32.08;20.48;;;;;;;16.70;42.24;94715.09;5021887;28;20610;-91
2024/01/29 01:44:23;;;;;;;30.35;19.30;;;;;;;16.65;41.72;94711.06;5011477;28;20045;-91
2024/01/29 01:46:48;;;;;;;34.40;21.02;;;;;;;16.75;43.29;94720.69;5011665;28;20034;-91
2024/01/29 01:49:14;;;;;;;37.40;23.98;;;;;;;16.78;42.75;94708.06;5027401;28;20150;-91
2024/01/29 01:51:40;;;;;;;40.22;25.70;;;;;;;16.77;42.69;94704.59;4995363;28;20041;-92
2024/01/29 01:54:06;;;;;;;36.90;22.55;;;;;;;16.72;42.51;94705.22;5007488;28;20043;-91
2024/01/29 01:56:31;;;;;;;37.85;24.83;;;;;;;16.77;42.73;94701.84;4993464;28;20034;-91
2024/01/29 01:58:57;;;;;;;34.45;21.00;;;;;;;16.74;42.61;94702.78;5012013;28;20124;-91
2024/01/29 02:01:22;;;;;;;31.23;21.13;;;;;;;16.73;42.10;94700.53;4996458;28;20040;-92
2024/01/29 02:03:48;;;;;;;37.45;22.38;;;;;;;16.72;42.70;94707.97;4985905;28;20076;-91
2024/01/29 02:06:13;;;;;;;37.80;24.10;;;;;;;16.75;42.55;94696.09;4998943;28;20052;-91
2024/01/29 02:08:39;;;;;;;35.03;23.42;;;;;;;16.76;42.53;94697.63;4986583;28;20049;-90
2024/01/29 02:11:05;;;;;;;35.67;22.45;;;;;;;16.79;42.70;94701.38;4981319;28;20049;-91
2024/01/29 02:13:31;;;;;;;44.33;26.00;;;;;;;16.77;42.66;94695.63;5020474;28;20124;-91
2024/01/29 02:15:56;;;;;;;35.13;24.20;;;;;;;16.78;43.12;94694.41;4990509;28;20042;-91
2024/01/29 02:18:22;;;;;;;47.20;29.75;;;;;;;16.76;42.92;94683.19;4996991;28;20049;-92
2024/01/29 02:20:47;;;;;;;33.45;20.58;;;;;;;16.76;42.27;94689.41;4989789;28;20045;-91
2024/01/29 02:23:13;;;;;;;25.33;16.30;;;;;;;16.72;41.66;94683.38;4997677;28;20096;-91
2024/01/29 02:25:39;;;;;;;38.75;25.05;;;;;;;16.72;42.39;94677.16;5012478;28;20048;-91
2024/01/29 02:28:04;;;;;;;33.25;20.77;;;;;;;16.70;42.13;94687.81;4975600;28;20041;-91
2024/01/29 02:30:30;;;;;;;39.42;27.58;;;;;;;16.83;42.69;94682.09;4990848;28;20080;-91
2024/01/29 02:32:55;;;;;;;32.83;23.15;;;;;;;16.76;42.52;94681.22;5001268;28;20033;-91
2024/01/29 02:35:22;;;;;;;30.73;18.70;;;;;;;16.71;41.78;94681.13;4993790;28;20041;-91
2024/01/29 02:37:48;;;;;;;30.90;20.25;;;;;;;16.73;41.77;94684.13;4991727;28;20038;-91
2024/01/29 02:40:13;;;;;;;34.35;23.15;;;;;;;16.76;42.21;94683.19;4996683;28;20037;-92
2024/01/29 02:42:40;;;;;;;37.95;25.63;;;;;;;16.74;42.43;94674.72;5020347;28;20116;-91
2024/01/29 02:45:05;;;;;;;32.08;20.13;;;;;;;16.75;41.84;94681.69;5024501;28;20037;-91
2024/01/29 02:47:32;;;;;;;28.73;18.10;;;;;;;16.72;41.83;94685.34;5019698;28;20059;-91
2024/01/29 02:49:57;;;;;;;37.65;23.83;;;;;;;16.70;42.73;94674.91;5013502;28;20064;-91
2024/01/29 02:52:23;;;;;;;32.17;20.95;;;;;;;16.70;41.87;94677.63;5030210;28;20045;-91
2024/01/29 02:54:48;;;;;;;38.78;23.50;;;;;;;16.74;42.35;94680.94;5044449;28;20143;-91
2024/01/29 02:57:14;;;;;;;33.30;21.63;;;;;;;16.75;42.04;94670.78;5024875;28;20050;-91
2024/01/29 02:59:39;;;;;;;37.15;25.10;;;;;;;16.81;42.03;94671.63;5013664;28;20044;-91
2024/01/29 03:02:07;;;;;;;27.25;17.73;;;;;;;16.79;42.18;94677.56;5016483;28;20416;-91
2024/01/29 03:04:32;;;;;;;33.42;23.67;;;;;;;16.77;42.81;94669.09;5029242;28;20045;-92
2024/01/29 03:06:58;;;;;;;35.80;22.42;;;;;;;16.77;42.39;94671.81;5003234;28;20127;-91
2024/01/29 03:09:23;;;;;;;23.77;16.20;;;;;;;16.72;41.89;94663.50;5011995;28;20044;-92
2024/01/29 03:11:49;;;;;;;25.08;17.40;;;;;;;16.75;42.56;94665.31;5026237;28;20050;-91
2024/01/29 03:14:14;;;;;;;34.22;21.13;;;;;;;16.77;41.72;94662.88;5029501;28;20111;-91
2024/01/29 03:16:40;;;;;;;28.35;19.33;;;;;;;16.72;42.13;94663.50;5028738;28;20088;-91
2024/01/29 03:19:07;;;;;;;44.63;28.58;;;;;;;16.70;42.00;94652.31;4998994;28;20404;-91
2024/01/29 03:21:33;;;;;;;36.63;24.55;;;;;;;16.67;42.44;94656.00;5008759;28;20045;-91
2024/01/29 03:23:58;;;;;;;30.92;21.63;;;;;;;16.71;42.96;94656.53;5002565;28;20045;-91
2024/01/29 03:26:24;;;;;;;31.08;19.63;;;;;;;16.74;42.82;94661.06;5021218;28;20860;-92
2024/01/29 03:28:49;;;;;;;41.20;25.52;;;;;;;16.75;41.84;94651.66;4997485;28;20037;-91
2024/01/29 03:31:14;;;;;;;41.67;26.52;;;;;;;16.78;42.36;94654.22;5025715;28;20076;-91
2024/01/29 03:33:40;;;;;;;42.95;27.25;;;;;;;16.75;43.06;94651.66;5000019;28;20400;-92
2024/01/29 03:36:06;;;;;;;32.38;22.42;;;;;;;16.76;42.56;94661.34;4996549;28;20060;-90
2024/01/29 03:38:32;;;;;;;32.80;21.50;;;;;;;16.75;42.16;94646.19;5012634;28;20045;-91
2024/01/29 03:40:58;;;;;;;37.50;22.83;;;;;;;16.74;42.64;94645.44;5013649;28;20043;-91
2024/01/29 03:43:25;;;;;;;40.17;26.10;;;;;;;16.74;42.94;94639.22;5003468;28;20550;-91
2024/01/29 03:45:51;;;;;;;27.73;18.40;;;;;;;16.74;41.41;94656.38;4997088;28;20046;-89
2024/01/29 03:48:16;;;;;;;35.47;22.77;;;;;;;16.74;41.85;94655.59;5013141;28;20118;-91
2024/01/29 03:50:42;;;;;;;34.53;23.45;;;;;;;16.80;41.84;94659.19;5029687;28;20055;-91
2024/01/29 03:53:07;;;;;;;34.78;22.08;;;;;;;16.81;41.73;94649.78;5044592;28;20439;-91
2024/01/29 03:55:32;;;;;;;37.28;23.60;;;;;;;16.75;42.27;94648.94;5012093;28;20122;-91
2024/01/29 03:57:58;;;;;;;41.53;25.23;;;;;;;16.81;42.35;94646.31;5018104;28;20045;-91
2024/01/29 04:00:23;;;;;;;29.30;20.15;;;;;;;16.71;42.70;94653.81;5028699;28;20052;-92
2024/01/29 04:02:49;;;;;;;23.25;16.52;;;;;;;16.68;41.50;94643.84;5012282;28;20299;-92
2024/01/29 04:05:15;;;;;;;37.42;22.52;;;;;;;16.75;41.88;94641.50;4990626;28;20058;-92
2024/01/29 04:07:41;;;;;;;28.60;18.42;;;;;;;16.73;42.47;94648.63;4989967;28;20041;-91
2024/01/29 04:10:08;;;;;;;33.97;22.48;;;;;;;16.72;42.03;94647.88;4988259;28;20046;-92
2024/01/29 04:12:33;;;;;;;27.08;17.90;;;;;;;16.68;41.93;94647.31;4965951;28;20143;-92
2024/01/29 04:14:59;;;;;;;28.92;18.80;;;;;;;16.71;42.26;94656.53;4975605;28;20877;-91
2024/01/29 04:17:25;;;;;;;28.55;19.00;;;;;;;16.66;42.43;94638.09;4990970;28;20037;-92
2024/01/29 04:19:50;;;;;;;29.58;19.73;;;;;;;16.66;42.20;94649.03;4991516;28;20053;-92
2024/01/29 04:22:16;;;;;;;81.85;59.58;;;;;;;16.63;41.22;94655.41;4990937;28;20045;-92
2024/01/29 04:24:41;;;;;;;56.65;37.25;;;;;;;16.67;41.38;94640.34;4971899;28;20037;-92
2024/01/29 04:27:08;;;;;;;141.63;104.50;;;;;;;16.68;41.55;94639.13;5019664;28;20562;-92
2024/01/29 04:29:36;;;;;;;100.78;53.55;;;;;;;16.75;41.84;94638.75;4973516;28;20088;-92
2024/01/29 04:32:01;;;;;;;34.40;14.00;;;;;;;16.81;41.48;94638.88;4959559;28;20068;-91
2024/01/29 04:34:27;;;;;;;37.78;22.27;;;;;;;16.92;41.11;94638.28;4993622;28;20753;-92
2024/01/29 04:36:53;;;;;;;37.08;25.15;;;;;;;16.89;41.70;94634.50;4992083;28;20570;-90
2024/01/29 04:39:19;;;;;;;67.28;52.13;;;;;;;16.89;41.03;94634.50;5020799;28;20037;-90
2024/01/29 04:41:44;;;;;;;96.72;68.55;;;;;;;16.83;41.36;94632.94;5031525;28;20040;-92
2024/01/29 04:44:11;;;;;;;35.95;28.77;;;;;;;16.87;41.27;94631.53;5006437;28;20037;-90
2024/01/29 04:46:36;;;;;;;45.65;25.65;;;;;;;16.94;41.85;94633.09;5010373;28;20052;-90
2024/01/29 04:49:02;;;;;;;44.25;26.05;;;;;;;16.87;41.33;94631.53;5039291;28;20037;-90
2024/01/29 04:51:28;;;;;;;40.28;24.17;;;;;;;17.00;40.67;94640.19;5026747;28;20094;-92
2024/01/29 04:53:53;;;;;;;27.98;19.52;;;;;;;16.96;40.85;94634.16;5001179;28;20037;-91
2024/01/29 04:56:19;;;;;;;40.38;17.95;;;;;;;16.87;37.13;94642.44;5008970;28;20072;-92
2024/01/29 04:58:44;;;;;;;38.75;19.15;;;;;;;16.63;35.15;94639.81;5008913;28;20053;-91
2024/01/29 05:01:10;;;;;;;39.17;21.67;;;;;;;16.72;36.77;94636.22;5003990;28;20049;-90
2024/01/29 05:03:36;;;;;;;38.63;19.40;;;;;;;16.70;36.19;94639.41;5030931;28;20132;-90
2024/01/29 05:06:01;;;;;;;44.58;22.15;;;;;;;16.76;38.03;94634.06;5013678;28;20082;-90
2024/01/29 05:08:30;;;;;;;49.58;22.63;;;;;;;16.73;36.09;94633.00;5002740;28;20467;-91
2024/01/29 05:10:56;;;;;;;43.20;15.02;;;;;;;16.43;31.31;94631.47;5006203;28;20136;-91
2024/01/29 05:13:21;;;;;;;86.25;33.25;;;;;;;16.24;28.16;94649.94;5008354;28;20473;-90
2024/01/29 05:15:47;;;;;;;58.35;18.40;;;;;;;16.13;27.38;94638.81;5010002;28;20125;-92
2024/01/29 05:18:12;;;;;;;52.97;18.08;;;;;;;15.93;25.21;94642.13;5003219;28;20038;-92
2024/01/29 05:20:38;;;;;;;44.67;12.20;;;;;;;15.92;25.05;94629.72;5025155;28;20052;-91
2024/01/29 05:23:05;;;;;;;22.73;10.45;;;;;;;15.83;23.61;94637.94;4999003;28;20042;-90
2024/01/29 05:25:32;;;;;;;22.55;7.78;;;;;;;15.68;23.16;94639.88;4997475;28;20053;-92
2024/01/29 05:27:58;;;;;;;28.45;7.28;;;;;;;15.81;23.37;94639.63;4979904;28;20042;-90
2024/01/29 05:30:24;;;;;;;27.90;9.48;;;;;;;15.70;23.57;94646.38;4985475;28;20076;-90
2024/01/29 05:32:49;;;;;;;34.42;9.10;;;;;;;15.59;22.97;94642.66;4970825;28;20038;-90
2024/01/29 05:35:15;;;;;;;34.20;12.50;;;;;;;15.69;24.16;94647.59;4948583;28;20055;-91
2024/01/29 05:37:40;;;;;;;80.78;35.67;;;;;;;15.83;24.29;94654.31;4934637;29;20044;-90
2024/01/29 05:40:09;;;;;;;185.73;125.38;;;;;;;15.97;24.02;94641.97;4936903;28;20052;-90
2024/01/29 05:42:35;;;;;;;67.90;36.78;;;;;;;16.09;24.68;94649.16;4936868;28;20067;-90
2024/01/29 05:45:01;;;;;;;45.08;20.48;;;;;;;16.14;25.46;94645.03;4931071;29;20516;-91
2024/01/29 05:47:26;;;;;;;87.90;34.72;;;;;;;16.22;26.88;94648.91;4885709;29;20181;-90
2024/01/29 05:49:52;;;;;;;96.68;42.63;;;;;;;16.23;27.86;94647.69;4886770;29;20048;-90
2024/01/29 05:52:17;;;;;;;154.90;56.35;;;;;;;16.24;28.42;94646.47;4874938;29;20040;-93
2024/01/29 05:54:43;;;;;;;76.10;25.83;;;;;;;16.31;30.06;94646.84;4904586;29;20118;-89
2024/01/29 05:57:11;;;;;;;53.58;23.38;;;;;;;16.26;30.72;94649.47;4917720;29;20047;-90
2024/01/29 05:59:40;;;;;;;48.00;19.02;;;;;;;16.26;30.20;94639.31;4897101;29;20043;-90
2024/01/29 06:02:05;;;;;;;53.67;21.70;;;;;;;16.29;30.50;94654.00;4917968;29;20570;-89
2024/01/29 06:04:32;;;;;;;78.20;26.65;;;;;;;16.37;30.69;94655.16;4917204;29;20102;-90
2024/01/29 06:06:58;;;;;;;73.30;25.35;;;;;;;16.31;30.48;94646.09;4950076;28;20163;-91
2024/01/29 06:09:32;;;;;;;56.20;24.67;;;;;;;16.40;30.70;94656.94;4950358;28;20493;-91
2024/01/29 06:12:04;;;;;;;60.03;29.65;;;;;;;16.43;32.25;94656.03;4952702;28;20057;-94
2024/01/29 06:14:30;;;;;;;67.38;26.30;;;;;;;16.48;31.91;94652.63;4970905;28;20046;-93
2024/01/29 06:17:03;;;;;;;56.95;25.80;;;;;;;16.48;31.12;94658.09;4973474;28;20049;-91
2024/01/29 06:19:35;;;;;;;57.58;26.00;;;;;;;16.52;32.78;94660.63;4987994;28;20491;-92
2024/01/29 06:22:01;;;;;;;55.92;26.25;;;;;;;16.48;31.68;94662.78;5001709;28;20068;-91
2024/01/29 06:24:26;;;;;;;51.30;26.48;;;;;;;16.48;32.12;94660.06;4994506;28;20041;-91
2024/01/29 06:26:52;;;;;;;54.85;24.48;;;;;;;16.48;31.68;94657.31;4979843;28;20077;-91
2024/01/29 06:29:17;;;;;;;52.78;25.73;;;;;;;16.52;31.67;94661.38;4979681;28;20544;-92
2024/01/29 06:31:43;;;;;;;67.90;28.35;;;;;;;16.52;32.64;94660.63;4986797;28;20038;-91
2024/01/29 06:34:08;;;;;;;91.93;45.00;;;;;;;16.53;32.32;94660.16;5005457;28;20045;-91
2024/01/29 06:36:34;;;;;;;119.38;47.05;;;;;;;16.55;32.49;94667.88;5002285;28;20030;-92
2024/01/29 06:39:03;;;;;;;76.03;36.67;;;;;;;16.54;32.06;94660.94;5004098;28;20021;-93
2024/01/29 06:41:29;;;;;;;84.55;40.63;;;;;;;16.63;32.47;94666.31;5020056;28;20471;-91
2024/01/29 06:43:55;;;;;;;117.55;54.55;;;;;;;16.58;32.46;94658.78;5016597;28;20045;-91
2024/01/29 06:46:21;;;;;;;104.95;53.53;;;;;;;16.55;32.58;94660.47;5029831;28;20040;-92
2024/01/29 06:48:47;;;;;;;125.30;64.47;;;;;;;16.59;33.34;94676.66;5002668;28;20038;-92
2024/01/29 06:51:15;;;;;;;123.32;67.30;;;;;;;16.70;33.56;94676.88;5003157;28;20048;-88
2024/01/29 06:53:40;;;;;;;145.93;77.13;;;;;;;16.66;33.33;94670.88;5014299;28;20048;-91
2024/01/29 06:56:06;;;;;;;176.73;93.70;;;;;;;16.62;32.86;94675.72;5021249;28;20041;-91
2024/01/29 06:58:33;;;;;;;188.75;100.75;;;;;;;16.65;32.84;94672.09;5022274;28;20046;-92
2024/01/29 07:01:01;;;;;;;202.45;106.90;;;;;;;16.71;32.64;94670.94;5018912;28;20033;-90
2024/01/29 07:03:27;;;;;;;249.80;131.23;;;;;;;16.61;31.75;94674.97;5019357;28;20092;-92
2024/01/29 07:05:53;;;;;;;261.92;134.60;;;;;;;16.63;31.54;94682.69;5035410;28;20353;-93
2024/01/29 07:08:18;;;;;;;302.50;164.43;;;;;;;16.66;31.42;94677.09;5032927;28;20044;-92
2024/01/29 07:10:45;;;;;;;263.85;134.70;;;;;;;16.58;32.10;94677.88;5002158;28;20038;-91
2024/01/29 07:13:10;;;;;;;250.38;131.27;;;;;;;16.65;32.45;94677.56;4999719;28;20038;-89
2024/01/29 07:15:36;;;;;;;235.18;131.23;;;;;;;16.66;32.67;94677.09;4985226;28;20131;-91
2024/01/29 07:18:02;;;;;;;247.95;131.05;;;;;;;16.64;32.81;94686.97;4988708;28;20045;-91
2024/01/29 07:20:29;;;;;;;264.85;137.80;;;;;;;16.67;32.57;94675.13;4995862;28;20045;-92
2024/01/29 07:22:55;;;;;;;257.75;136.90;;;;;;;16.67;32.69;94684.03;5013229;28;20065;-92
2024/01/29 07:25:21;;;;;;;241.57;132.80;;;;;;;16.66;32.44;94687.25;5005535;28;20068;-92
2024/01/29 07:27:46;;;;;;;246.55;133.55;;;;;;;16.69;32.68;94684.31;4983953;28;20184;-89
2024/01/29 07:30:12;;;;;;;238.05;134.23;;;;;;;16.66;32.59;94685.28;4976740;28;20045;-92
2024/01/29 07:32:38;;;;;;;241.07;127.72;;;;;;;16.71;33.16;94689.31;4989517;28;20041;-93
2024/01/29 07:35:04;;;;;;;222.40;118.72;;;;;;;16.81;33.10;94684.53;4984717;28;20045;-91
2024/01/29 07:37:30;;;;;;;233.10;122.90;;;;;;;16.76;32.91;94691.41;4980874;28;20888;-91
2024/01/29 07:39:56;;;;;;;222.45;121.03;;;;;;;16.77;33.27;94688.19;4993118;28;20041;-89
2024/01/29 07:42:21;;;;;;;225.88;119.10;;;;;;;16.79;33.22;94693.94;5026698;28;20112;-89
2024/01/29 07:44:48;;;;;;;254.55;117.07;;;;;;;16.80;33.19;94694.69;5014155;28;20049;-90
2024/01/29 07:47:14;;;;;;;220.40;117.03;;;;;;;16.84;33.01;94700.75;5021995;28;20041;-89
2024/01/29 07:49:39;;;;;;;217.35;112.63;;;;;;;16.83;33.47;94698.47;5026904;28;20933;-89
2024/01/29 07:52:06;;;;;;;216.90;112.28;;;;;;;16.87;32.94;94707.25;5015938;28;20067;-91
2024/01/29 07:54:32;;;;;;;213.90;112.60;;;;;;;16.86;33.45;94703.75;5018784;28;20119;-90
2024/01/29 07:56:57;;;;;;;224.95;119.57;;;;;;;16.93;33.18;94702.63;5013555;28;20040;-92
2024/01/29 07:59:24;;;;;;;223.45;126.63;;;;;;;16.99;33.05;94708.94;5020011;28;20044;-90
2024/01/29 08:01:49;;;;;;;228.65;125.70;;;;;;;17.06;33.38;94714.03;5014723;28;20045;-90
2024/01/29 08:04:19;;;;;;;227.27;126.45;;;;;;;17.04;32.99;94708.28;5027013;28;20049;-92
2024/01/29 08:06:44;;;;;;;204.85;112.07;;;;;;;17.05;32.16;94710.56;5017685;28;20038;-90
2024/01/29 08:09:10;;;;;;;245.65;131.07;;;;;;;16.98;32.51;94710.91;5019507;28;20037;-90
2024/01/29 08:11:36;;;;;;;237.05;131.98;;;;;;;17.05;33.28;94715.25;5015186;28;20063;-91
2024/01/29 08:14:02;;;;;;;230.43;126.18;;;;;;;17.07;33.39;94718.28;5010446;28;20053;-89
2024/01/29 08:16:36;;;;;;;237.85;129.25;;;;;;;17.01;33.20;94709.97;5021900;28;20045;-92
2024/01/29 08:19:02;;;;;;;213.25;119.97;;;;;;;17.09;33.00;94710.38;5019149;28;20124;-92
2024/01/29 08:21:27;;;;;;;163.40;73.82;;;;;;;16.98;30.04;94713.66;5027649;28;20128;-92
2024/01/29 08:23:53;;;;;;;287.88;132.68;;;;;;;16.96;30.36;94721.56;4996410;28;20060;-91
2024/01/29 08:26:18;;;;;;;223.57;114.75;;;;;;;16.96;32.08;94724.28;5002952;28;20079;-90
2024/01/29 08:28:44;;;;;;;197.55;106.05;;;;;;;16.95;32.93;94717.31;5028329;28;20033;-91
2024/01/29 08:31:10;;;;;;;188.35;99.10;;;;;;;17.02;32.58;94724.41;5023081;28;20060;-91
2024/01/29 08:33:35;;;;;;;185.52;99.05;;;;;;;17.05;32.83;94718.75;5018335;28;20041;-91
2024/01/29 08:36:01;;;;;;;186.90;97.07;;;;;;;17.09;32.85;94718.56;4990072;28;20037;-92
2024/01/29 08:38:27;;;;;;;169.43;93.05;;;;;;;17.09;32.41;94719.31;4972931;28;20049;-92
2024/01/29 08:40:52;;;;;;;154.73;89.45;;;;;;;17.12;32.46;94715.63;4975540;28;20048;-91
2024/01/29 08:43:19;;;;;;;169.63;86.38;;;;;;;17.11;32.70;94705.91;4992907;28;20451;-90
2024/01/29 08:45:44;;;;;;;148.48;81.72;;;;;;;17.13;32.98;94717.13;4988153;28;20069;-90
2024/01/29 08:48:09;;;;;;;161.02;88.57;;;;;;;17.16;33.00;94709.97;4973237;28;20045;-89
2024/01/29 08:50:35;;;;;;;159.50;83.63;;;;;;;17.14;32.90;94715.91;4974753;28;20757;-91
2024/01/29 08:53:01;;;;;;;115.97;62.22;;;;;;;17.11;29.78;94719.59;4986149;28;20748;-94
2024/01/29 08:55:26;;;;;;;103.80;52.60;;;;;;;17.08;31.00;94712.34;4970281;28;20052;-91
2024/01/29 08:57:55;;;;;;;110.20;60.50;;;;;;;17.03;31.19;94721.19;4978263;28;20037;-95
2024/01/29 09:00:21;;;;;;;124.65;65.60;;;;;;;17.10;31.69;94720.06;4992754;28;20067;-92
2024/01/29 09:02:49;;;;;;;115.63;62.78;;;;;;;17.12;31.74;94712.91;5014400;28;20041;-93
2024/01/29 09:05:16;;;;;;;117.28;64.68;;;;;;;17.06;33.02;94722.22;4977754;28;20046;-92
2024/01/29 09:07:41;;;;;;;132.30;72.40;;;;;;;17.08;32.35;94719.78;5020406;28;20041;-93
2024/01/29 09:10:10;;;;;;;180.25;95.78;;;;;;;17.12;32.01;94723.81;5017360;28;20049;-92
2024/01/29 09:12:36;;;;;;;199.07;108.82;;;;;;;17.16;32.12;94722.88;5020373;28;20510;-91
2024/01/29 09:15:04;;;;;;;198.32;106.07;;;;;;;17.11;31.98;94727.03;5023312;28;20046;-94
2024/01/29 09:17:30;;;;;;;191.60;99.55;;;;;;;17.13;32.01;94719.88;5034953;28;20130;-93
2024/01/29 09:19:57;;;;;;;181.95;98.05;;;;;;;17.23;32.42;94736.19;5022716;28;20056;-93
2024/01/29 09:22:23;;;;;;;193.52;95.75;;;;;;;17.23;32.76;94731.47;5029391;28;20045;-94
2024/01/29 09:24:48;;;;;;;196.82;101.10;;;;;;;17.25;32.86;94729.03;5018116;28;20064;-94
2024/01/29 09:27:14;;;;;;;221.18;112.20;;;;;;;17.28;32.63;94716.41;5015229;28;20044;-95
2024/01/29 09:29:40;;;;;;;179.48;91.80;;;;;;;17.24;33.16;94727.50;5017264;28;20624;-93
2024/01/29 09:32:07;;;;;;;183.23;91.43;;;;;;;17.26;32.99;94729.78;5019449;28;20060;-93
2024/01/29 09:34:32;;;;;;;184.38;93.07;;;;;;;17.21;32.75;94735.91;5001569;28;20036;-91
2024/01/29 09:36:58;;;;;;;164.38;89.30;;;;;;;17.19;33.90;94730.16;5002430;28;20037;-91
2024/01/29 09:39:24;;;;;;;152.85;82.20;;;;;;;17.19;32.08;94735.59;5002444;28;20459;-91
2024/01/29 09:41:52;;;;;;;150.60;74.60;;;;;;;17.17;31.58;94735.31;5000874;28;20041;-91
2024/01/29 09:44:18;;;;;;;187.13;92.03;;;;;;;17.16;32.00;94726.38;5002693;28;20040;-93
2024/01/29 09:46:52;;;;;;;183.07;95.63;;;;;;;17.19;33.03;94736.38;4995792;28;20046;-92
2024/01/29 09:49:18;;;;;;;159.98;87.68;;;;;;;17.28;32.82;94741.75;4961842;28;20077;-93
2024/01/29 09:51:45;;;;;;;126.30;60.63;;;;;;;17.20;28.87;94729.69;4981359;28;20651;-91
2024/01/29 09:54:11;;;;;;;77.18;39.50;;;;;;;17.12;27.54;94729.28;4997679;28;20038;-91
2024/01/29 09:56:36;;;;;;;67.15;35.13;;;;;;;17.06;28.14;94733.91;4996292;28;20045;-91
2024/01/29 09:59:04;;;;;;;75.43;34.25;;;;;;;17.06;27.92;94730.44;4978941;28;20072;-91
2024/01/29 10:01:29;;;;;;;77.57;41.72;;;;;;;17.10;29.56;94733.75;5001159;28;20057;-90
2024/01/29 10:03:55;;;;;;;120.20;68.35;;;;;;;17.11;30.70;94727.03;4982613;28;20038;-91
2024/01/29 10:06:22;;;;;;;132.07;70.95;;;;;;;17.09;31.66;94732.97;4963534;28;20436;-90
2024/01/29 10:08:48;;;;;;;128.60;68.18;;;;;;;17.13;31.37;94721.84;4985426;28;20045;-90
2024/01/29 10:11:17;;;;;;;110.95;62.30;;;;;;;17.17;31.60;94727.88;4999183;28;20038;-92
2024/01/29 10:13:42;;;;;;;129.15;64.50;;;;;;;17.16;31.06;94731.84;5003587;28;20041;-88
2024/01/29 10:16:08;;;;;;;128.88;66.35;;;;;;;17.18;31.53;94728.63;5002549;28;20771;-89
2024/01/29 10:19:14;;;;;;;137.85;73.95;;;;;;;17.22;32.17;94723.75;4973075;28;20061;-94
2024/01/29 10:21:49;;;;;;;143.70;73.82;;;;;;;17.20;32.24;94723.47;5000011;28;20105;-90
2024/01/29 10:24:16;;;;;;;152.30;75.88;;;;;;;17.24;31.88;94718.56;5004027;28;20037;-91
2024/01/29 10:26:43;;;;;;;150.20;76.07;;;;;;;17.18;31.63;94721.19;4999054;28;20109;-90
2024/01/29 10:29:10;;;;;;;141.35;69.00;;;;;;;17.21;31.89;94720.25;4996361;28;20076;-92
2024/01/29 10:31:36;;;;;;;135.68;69.03;;;;;;;17.23;32.50;94719.78;5007628;28;20587;-92
2024/01/29 10:34:14;;;;;;;115.78;65.47;;;;;;;17.25;32.06;94712.63;4989486;28;20111;-93
2024/01/29 10:36:40;;;;;;;120.28;63.67;;;;;;;17.29;32.38;94709.72;4997050;28;20454;-92
2024/01/29 10:39:06;;;;;;;112.65;63.03;;;;;;;17.23;32.39;94706.88;5009986;28;20037;-93
2024/01/29 10:41:34;;;;;;;105.80;59.72;;;;;;;17.27;31.95;94712.16;4978718;28;20455;-92
2024/01/29 10:44:03;;;;;;;109.60;57.78;;;;;;;17.27;32.57;94712.16;4995039;28;20041;-94
2024/01/29 10:46:28;;;;;;;101.13;58.25;;;;;;;17.28;32.52;94700.75;4990178;28;20062;-93
2024/01/29 10:52:26;;;;;;;96.22;56.40;;;;;;;17.23;32.30;94704.16;4973048;28;20041;-93
2024/01/29 10:54:51;;;;;;;104.43;58.22;;;;;;;17.32;32.75;94704.03;4987729;28;20037;-92
2024/01/29 10:57:17;;;;;;;123.00;70.15;;;;;;;17.28;32.88;94703.50;4996400;28;20048;-91
2024/01/29 10:59:43;;;;;;;129.65;73.85;;;;;;;17.34;32.74;94706.28;4999206;28;20041;-94
2024/01/29 11:03:21;;;;;;;143.85;76.07;;;;;;;17.27;32.46;94699.25;4980336;28;20061;-94
2024/01/29 11:06:10;;;;;;;158.90;87.97;;;;;;;17.27;32.72;94695.75;4960691;28;20070;-95
2024/01/29 11:08:39;;;;;;;175.00;94.18;;;;;;;17.24;32.48;94688.50;4887237;29;20083;-93
2024/01/29 11:11:04;;;;;;;193.48;104.53;;;;;;;17.27;32.70;94698.50;4831756;29;20100;-92
2024/01/29 11:13:30;;;;;;;194.95;109.40;;;;;;;17.28;33.23;94694.53;4846268;29;20457;-94